sensor_id;sensor_type;location;lat;lon;timestamp;P1;durP1;ratioP1;P2;durP2;ratioP2
75851;SDS011;64500;52.632;20.656;2023-03-05T16:26:53;14.60;;;6.80;;
75851;SDS011;64500;52.632;20.656;2023-03-05T16:29:20;11.10;;;5.70;;
75851;SDS011;64500;52.632;20.656;2023-03-05T16:31:47;13.50;;;6.60;;
75851;SDS011;64500;52.632;20.656;2023-03-05T16:34:17;15.30;;;6.30;;
75851;SDS011;64500;52.632;20.656;2023-03-05T16:36:48;18.40;;;7.40;;
75851;SDS011;64500;52.632;20.656;2023-03-05T16:39:19;15.30;;;7.00;;
75851;SDS011;64500;52.632;20.656;2023-03-05T16:41:47;14.80;;;6.70;;
75851;SDS011;64500;52.632;20.656;2023-03-05T16:44:15;18.60;;;7.50;;
75851;SDS011;64500;52.632;20.656;2023-03-05T16:46:42;16.20;;;7.40;;
75851;SDS011;64500;52.632;20.656;2023-03-05T16:49:14;20.70;;;8.40;;
75851;SDS011;64500;52.632;20.656;2023-03-05T16:51:42;19.00;;;8.50;;
75851;SDS011;64500;52.632;20.656;2023-03-05T16:54:09;19.00;;;8.80;;
75851;SDS011;64500;52.632;20.656;2023-03-05T16:56:37;18.50;;;8.60;;
75851;SDS011;64500;52.632;20.656;2023-03-05T16:59:05;21.00;;;8.80;;
75851;SDS011;64500;52.632;20.656;2023-03-05T17:01:32;16.30;;;7.70;;
75851;SDS011;64500;52.632;20.656;2023-03-05T17:04:00;17.70;;;8.50;;
75851;SDS011;64500;52.632;20.656;2023-03-05T17:06:28;15.70;;;8.10;;
75851;SDS011;64500;52.632;20.656;2023-03-05T17:08:57;16.80;;;8.20;;
75851;SDS011;64500;52.632;20.656;2023-03-05T17:11:25;17.40;;;8.20;;
75851;SDS011;64500;52.632;20.656;2023-03-05T17:13:53;18.00;;;8.70;;
75851;SDS011;64500;52.632;20.656;2023-03-05T17:16:20;18.40;;;7.80;;
75851;SDS011;64500;52.632;20.656;2023-03-05T17:18:47;16.60;;;8.20;;
75851;SDS011;64500;52.632;20.656;2023-03-05T17:21:14;19.10;;;9.30;;
75851;SDS011;64500;52.632;20.656;2023-03-05T17:23:42;17.30;;;8.50;;
75851;SDS011;64500;52.632;20.656;2023-03-05T17:26:10;18.50;;;8.70;;
75851;SDS011;64500;52.632;20.656;2023-03-05T17:28:39;23.30;;;9.90;;
75851;SDS011;64500;52.632;20.656;2023-03-05T17:31:08;20.00;;;9.20;;
75851;SDS011;64500;52.632;20.656;2023-03-05T17:37:45;20.00;;;9.00;;
75851;SDS011;64500;52.632;20.656;2023-03-05T17:40:14;22.50;;;9.60;;
75851;SDS011;64500;52.632;20.656;2023-03-05T17:42:41;21.20;;;9.40;;
75851;SDS011;64500;52.632;20.656;2023-03-05T17:45:08;22.10;;;9.20;;
75851;SDS011;64500;52.632;20.656;2023-03-05T17:47:36;19.60;;;8.80;;
75851;SDS011;64500;52.632;20.656;2023-03-05T17:50:03;24.40;;;9.70;;
75851;SDS011;64500;52.632;20.656;2023-03-05T17:52:33;20.40;;;9.10;;
75851;SDS011;64500;52.632;20.656;2023-03-05T17:55:05;23.50;;;10.30;;
75851;SDS011;64500;52.632;20.656;2023-03-05T17:57:37;24.20;;;9.30;;
75851;SDS011;64500;52.632;20.656;2023-03-05T18:00:12;19.30;;;9.10;;
75851;SDS011;64500;52.632;20.656;2023-03-05T18:02:41;19.20;;;8.30;;
75851;SDS011;64500;52.632;20.656;2023-03-05T18:05:09;20.50;;;8.50;;
75851;SDS011;64500;52.632;20.656;2023-03-05T18:07:37;19.10;;;8.80;;
75851;SDS011;64500;52.632;20.656;2023-03-05T18:10:05;17.60;;;8.00;;
75851;SDS011;64500;52.632;20.656;2023-03-05T18:12:34;19.30;;;8.80;;
75851;SDS011;64500;52.632;20.656;2023-03-05T18:15:02;19.20;;;9.00;;
75851;SDS011;64500;52.632;20.656;2023-03-05T18:17:31;21.90;;;10.00;;
75851;SDS011;64500;52.632;20.656;2023-03-05T18:19:58;25.30;;;9.60;;
75851;SDS011;64500;52.632;20.656;2023-03-05T18:22:25;22.00;;;9.80;;
75851;SDS011;64500;52.632;20.656;2023-03-05T18:24:54;24.50;;;10.90;;
75851;SDS011;64500;52.632;20.656;2023-03-05T18:27:22;20.50;;;9.70;;
75851;SDS011;64500;52.632;20.656;2023-03-05T18:29:50;22.80;;;10.20;;
75851;SDS011;64500;52.632;20.656;2023-03-05T18:32:20;21.60;;;9.80;;
75851;SDS011;64500;52.632;20.656;2023-03-05T18:34:47;25.90;;;10.00;;
75851;SDS011;64500;52.632;20.656;2023-03-05T18:37:14;23.60;;;9.80;;
75851;SDS011;64500;52.632;20.656;2023-03-05T18:39:41;22.20;;;8.60;;
75851;SDS011;64500;52.632;20.656;2023-03-05T18:42:10;19.90;;;8.70;;
75851;SDS011;64500;52.632;20.656;2023-03-05T18:44:39;21.80;;;8.70;;
75851;SDS011;64500;52.632;20.656;2023-03-05T18:47:07;22.80;;;9.90;;
75851;SDS011;64500;52.632;20.656;2023-03-05T18:49:33;26.10;;;9.30;;
75851;SDS011;64500;52.632;20.656;2023-03-05T18:52:01;23.00;;;9.00;;
75851;SDS011;64500;52.632;20.656;2023-03-05T18:54:29;23.20;;;9.60;;
75851;SDS011;64500;52.632;20.656;2023-03-05T18:56:57;23.50;;;10.90;;
75851;SDS011;64500;52.632;20.656;2023-03-05T18:59:24;20.40;;;8.90;;
75851;SDS011;64500;52.632;20.656;2023-03-05T19:01:51;19.50;;;8.60;;
75851;SDS011;64500;52.632;20.656;2023-03-05T19:04:18;22.00;;;9.40;;
75851;SDS011;64500;52.632;20.656;2023-03-05T19:06:45;23.70;;;9.00;;
75851;SDS011;64500;52.632;20.656;2023-03-05T19:09:12;20.60;;;9.40;;
75851;SDS011;64500;52.632;20.656;2023-03-05T19:11:46;26.70;;;9.80;;
75851;SDS011;64500;52.632;20.656;2023-03-05T19:14:13;21.90;;;8.80;;
75851;SDS011;64500;52.632;20.656;2023-03-05T19:16:41;19.00;;;8.80;;
75851;SDS011;64500;52.632;20.656;2023-03-05T19:19:18;22.60;;;10.00;;
75851;SDS011;64500;52.632;20.656;2023-03-05T19:21:52;21.60;;;9.80;;
75851;SDS011;64500;52.632;20.656;2023-03-05T19:24:27;22.70;;;8.40;;
75851;SDS011;64500;52.632;20.656;2023-03-05T19:26:56;21.70;;;9.40;;
75851;SDS011;64500;52.632;20.656;2023-03-05T19:29:27;21.40;;;9.80;;
75851;SDS011;64500;52.632;20.656;2023-03-05T19:31:58;24.00;;;10.20;;
75851;SDS011;64500;52.632;20.656;2023-03-05T19:34:25;23.40;;;10.20;;
75851;SDS011;64500;52.632;20.656;2023-03-05T19:36:52;26.60;;;10.90;;
75851;SDS011;64500;52.632;20.656;2023-03-05T19:39:19;27.20;;;10.30;;
75851;SDS011;64500;52.632;20.656;2023-03-05T19:41:46;25.80;;;10.40;;
75851;SDS011;64500;52.632;20.656;2023-03-05T19:44:13;24.20;;;10.60;;
75851;SDS011;64500;52.632;20.656;2023-03-05T19:46:41;21.60;;;10.20;;
75851;SDS011;64500;52.632;20.656;2023-03-05T19:49:09;24.90;;;10.80;;
75851;SDS011;64500;52.632;20.656;2023-03-05T19:51:37;23.20;;;10.80;;
75851;SDS011;64500;52.632;20.656;2023-03-05T19:54:05;25.70;;;12.90;;
75851;SDS011;64500;52.632;20.656;2023-03-05T19:56:32;24.00;;;10.90;;
75851;SDS011;64500;52.632;20.656;2023-03-05T19:59:02;24.00;;;9.30;;
75851;SDS011;64500;52.632;20.656;2023-03-05T20:01:29;25.40;;;10.10;;
75851;SDS011;64500;52.632;20.656;2023-03-05T20:03:59;25.00;;;10.00;;
75851;SDS011;64500;52.632;20.656;2023-03-05T20:06:28;24.10;;;9.60;;
75851;SDS011;64500;52.632;20.656;2023-03-05T20:08:56;26.30;;;10.00;;
75851;SDS011;64500;52.632;20.656;2023-03-05T20:11:24;24.10;;;9.70;;
75851;SDS011;64500;52.632;20.656;2023-03-05T20:13:52;22.00;;;9.80;;
75851;SDS011;64500;52.632;20.656;2023-03-05T20:16:24;22.70;;;9.30;;
75851;SDS011;64500;52.632;20.656;2023-03-05T20:18:52;26.60;;;9.30;;
75851;SDS011;64500;52.632;20.656;2023-03-05T20:21:21;26.90;;;10.80;;
75851;SDS011;64500;52.632;20.656;2023-03-05T20:23:50;19.20;;;9.30;;
75851;SDS011;64500;52.632;20.656;2023-03-05T20:26:19;24.00;;;9.70;;
75851;SDS011;64500;52.632;20.656;2023-03-05T20:28:48;22.40;;;9.40;;
75851;SDS011;64500;52.632;20.656;2023-03-05T20:31:19;22.40;;;8.70;;
75851;SDS011;64500;52.632;20.656;2023-03-05T20:33:48;22.70;;;9.90;;
75851;SDS011;64500;52.632;20.656;2023-03-05T20:36:15;19.10;;;8.80;;
75851;SDS011;64500;52.632;20.656;2023-03-05T20:38:42;22.80;;;9.80;;
75851;SDS011;64500;52.632;20.656;2023-03-05T20:41:12;23.20;;;10.10;;
75851;SDS011;64500;52.632;20.656;2023-03-05T20:43:44;22.40;;;9.80;;
75851;SDS011;64500;52.632;20.656;2023-03-05T20:46:15;22.00;;;9.70;;
75851;SDS011;64500;52.632;20.656;2023-03-05T20:51:19;20.80;;;9.00;;
75851;SDS011;64500;52.632;20.656;2023-03-05T20:53:50;23.90;;;9.70;;
75851;SDS011;64500;52.632;20.656;2023-03-05T20:56:19;20.40;;;9.60;;
75851;SDS011;64500;52.632;20.656;2023-03-05T20:58:46;21.40;;;9.80;;
75851;SDS011;64500;52.632;20.656;2023-03-05T21:01:13;24.00;;;9.60;;
75851;SDS011;64500;52.632;20.656;2023-03-05T21:03:40;22.80;;;9.80;;
75851;SDS011;64500;52.632;20.656;2023-03-05T21:06:07;20.70;;;9.40;;
75851;SDS011;64500;52.632;20.656;2023-03-05T21:08:34;21.40;;;9.10;;
75851;SDS011;64500;52.632;20.656;2023-03-05T21:11:05;22.80;;;9.70;;
75851;SDS011;64500;52.632;20.656;2023-03-05T21:13:34;17.60;;;7.30;;
75851;SDS011;64500;52.632;20.656;2023-03-05T21:16:06;20.00;;;8.40;;
75851;SDS011;64500;52.632;20.656;2023-03-05T21:18:34;23.90;;;8.90;;
75851;SDS011;64500;52.632;20.656;2023-03-05T21:21:01;19.10;;;8.20;;
75851;SDS011;64500;52.632;20.656;2023-03-05T21:23:28;18.10;;;7.60;;
75851;SDS011;64500;52.632;20.656;2023-03-05T21:25:55;19.40;;;8.80;;
75851;SDS011;64500;52.632;20.656;2023-03-05T21:28:23;21.50;;;9.30;;
75851;SDS011;64500;52.632;20.656;2023-03-05T21:30:51;20.00;;;9.70;;
75851;SDS011;64500;52.632;20.656;2023-03-05T21:33:23;20.30;;;8.10;;
75851;SDS011;64500;52.632;20.656;2023-03-05T21:35:52;19.20;;;8.30;;
75851;SDS011;64500;52.632;20.656;2023-03-05T21:38:22;21.60;;;9.00;;
75851;SDS011;64500;52.632;20.656;2023-03-05T21:40:51;23.40;;;9.10;;
75851;SDS011;64500;52.632;20.656;2023-03-05T21:43:20;21.40;;;9.50;;
75851;SDS011;64500;52.632;20.656;2023-03-05T21:45:49;23.70;;;10.20;;
75851;SDS011;64500;52.632;20.656;2023-03-05T21:48:20;23.20;;;10.90;;
75851;SDS011;64500;52.632;20.656;2023-03-05T21:50:47;26.50;;;10.40;;
75851;SDS011;64500;52.632;20.656;2023-03-05T21:53:15;23.30;;;10.60;;
75851;SDS011;64500;52.632;20.656;2023-03-05T21:55:45;23.30;;;9.20;;
75851;SDS011;64500;52.632;20.656;2023-03-05T21:58:29;20.90;;;9.30;;
75851;SDS011;64500;52.632;20.656;2023-03-05T22:00:57;20.00;;;9.20;;
75851;SDS011;64500;52.632;20.656;2023-03-05T22:03:25;22.40;;;8.30;;
75851;SDS011;64500;52.632;20.656;2023-03-05T22:05:53;24.60;;;9.00;;
75851;SDS011;64500;52.632;20.656;2023-03-05T22:08:21;20.50;;;9.70;;
75851;SDS011;64500;52.632;20.656;2023-03-05T22:10:49;23.30;;;10.20;;
75851;SDS011;64500;52.632;20.656;2023-03-05T22:13:16;27.50;;;12.30;;
75851;SDS011;64500;52.632;20.656;2023-03-05T22:15:49;23.30;;;9.80;;
75851;SDS011;64500;52.632;20.656;2023-03-05T22:18:19;22.80;;;10.10;;
75851;SDS011;64500;52.632;20.656;2023-03-05T22:20:49;24.40;;;10.60;;
75851;SDS011;64500;52.632;20.656;2023-03-05T22:23:16;26.40;;;10.70;;
75851;SDS011;64500;52.632;20.656;2023-03-05T22:25:44;25.10;;;9.80;;
75851;SDS011;64500;52.632;20.656;2023-03-05T22:28:11;25.90;;;11.20;;
75851;SDS011;64500;52.632;20.656;2023-03-05T22:30:42;25.90;;;11.50;;
75851;SDS011;64500;52.632;20.656;2023-03-05T22:33:10;22.50;;;11.70;;
75851;SDS011;64500;52.632;20.656;2023-03-05T22:35:38;27.90;;;11.20;;
75851;SDS011;64500;52.632;20.656;2023-03-05T22:38:06;24.60;;;10.70;;
75851;SDS011;64500;52.632;20.656;2023-03-05T22:40:40;23.50;;;10.70;;
75851;SDS011;64500;52.632;20.656;2023-03-05T22:43:09;25.50;;;10.50;;
75851;SDS011;64500;52.632;20.656;2023-03-05T22:45:37;25.10;;;11.10;;
75851;SDS011;64500;52.632;20.656;2023-03-05T22:48:04;26.70;;;11.00;;
75851;SDS011;64500;52.632;20.656;2023-03-05T22:50:31;25.00;;;10.30;;
75851;SDS011;64500;52.632;20.656;2023-03-05T22:52:58;24.80;;;10.90;;
75851;SDS011;64500;52.632;20.656;2023-03-05T22:55:25;24.50;;;11.90;;
75851;SDS011;64500;52.632;20.656;2023-03-05T22:57:52;23.80;;;11.80;;
75851;SDS011;64500;52.632;20.656;2023-03-05T23:00:20;23.90;;;11.00;;
75851;SDS011;64500;52.632;20.656;2023-03-05T23:02:52;28.30;;;11.70;;
75851;SDS011;64500;52.632;20.656;2023-03-05T23:05:19;25.00;;;11.20;;
75851;SDS011;64500;52.632;20.656;2023-03-05T23:07:46;22.50;;;10.60;;
75851;SDS011;64500;52.632;20.656;2023-03-05T23:10:16;23.50;;;10.20;;
75851;SDS011;64500;52.632;20.656;2023-03-05T23:12:46;25.10;;;10.30;;
75851;SDS011;64500;52.632;20.656;2023-03-05T23:15:16;23.70;;;10.60;;
75851;SDS011;64500;52.632;20.656;2023-03-05T23:17:44;23.40;;;10.10;;
75851;SDS011;64500;52.632;20.656;2023-03-05T23:20:12;25.40;;;9.80;;
75851;SDS011;64500;52.632;20.656;2023-03-05T23:22:43;22.20;;;9.80;;
75851;SDS011;64500;52.632;20.656;2023-03-05T23:25:11;22.90;;;10.40;;
75851;SDS011;64500;52.632;20.656;2023-03-05T23:27:39;26.60;;;11.50;;
75851;SDS011;64500;52.632;20.656;2023-03-05T23:30:19;26.90;;;10.90;;
75851;SDS011;64500;52.632;20.656;2023-03-05T23:35:33;21.70;;;10.50;;
75851;SDS011;64500;52.632;20.656;2023-03-05T23:38:05;22.50;;;10.00;;
75851;SDS011;64500;52.632;20.656;2023-03-05T23:40:41;27.10;;;11.20;;
75851;SDS011;64500;52.632;20.656;2023-03-05T23:43:11;24.90;;;11.40;;
75851;SDS011;64500;52.632;20.656;2023-03-05T23:45:39;29.00;;;11.70;;
75851;SDS011;64500;52.632;20.656;2023-03-05T23:48:07;26.80;;;10.50;;
75851;SDS011;64500;52.632;20.656;2023-03-05T23:50:36;26.80;;;11.00;;
75851;SDS011;64500;52.632;20.656;2023-03-05T23:53:07;25.10;;;11.40;;
75851;SDS011;64500;52.632;20.656;2023-03-05T23:55:44;24.20;;;11.30;;
75851;SDS011;64500;52.632;20.656;2023-03-05T23:58:11;28.10;;;10.30;;
